sensor_id;sensor_type;location;lat;lon;timestamp;pressure;altitude;pressure_sealevel;temperature;humidity
54910;BME280;63189;51.240;9.964;2023-02-15T00:00:19;99288.91;;;-0.01;100.00
54910;BME280;63189;51.240;9.964;2023-02-15T00:02:44;99295.97;;;0.05;100.00
54910;BME280;63189;51.240;9.964;2023-02-15T00:05:10;99291.59;;;0.02;100.00
54910;BME280;63189;51.240;9.964;2023-02-15T00:07:35;99288.00;;;-0.03;100.00
54910;BME280;63189;51.240;9.964;2023-02-15T00:10:00;99287.81;;;-0.09;100.00
54910;BME280;63189;51.240;9.964;2023-02-15T00:12:26;99286.81;;;-0.13;100.00
54910;BME280;63189;51.240;9.964;2023-02-15T00:14:51;99287.50;;;-0.18;100.00
54910;BME280;63189;51.240;9.964;2023-02-15T00:17:17;99285.88;;;-0.16;100.00
54910;BME280;63189;51.240;9.964;2023-02-15T00:19:42;99276.34;;;-0.20;100.00
54910;BME280;63189;51.240;9.964;2023-02-15T00:22:07;99277.91;;;-0.24;100.00
54910;BME280;63189;51.240;9.964;2023-02-15T00:24:33;99272.75;;;-0.25;100.00
54910;BME280;63189;51.240;9.964;2023-02-15T00:26:59;99275.31;;;-0.25;100.00
54910;BME280;63189;51.240;9.964;2023-02-15T00:29:24;99272.66;;;-0.28;100.00
54910;BME280;63189;51.240;9.964;2023-02-15T00:31:50;99281.31;;;-0.25;100.00
54910;BME280;63189;51.240;9.964;2023-02-15T00:34:19;99282.16;;;-0.24;100.00
54910;BME280;63189;51.240;9.964;2023-02-15T00:36:45;99275.09;;;-0.32;100.00
54910;BME280;63189;51.240;9.964;2023-02-15T00:39:11;99271.59;;;-0.34;100.00
54910;BME280;63189;51.240;9.964;2023-02-15T00:41:39;99269.78;;;-0.38;100.00
54910;BME280;63189;51.240;9.964;2023-02-15T00:44:05;99265.56;;;-0.36;100.00
54910;BME280;63189;51.240;9.964;2023-02-15T00:46:32;99269.72;;;-0.39;100.00
54910;BME280;63189;51.240;9.964;2023-02-15T00:48:57;99269.69;;;-0.41;100.00
54910;BME280;63189;51.240;9.964;2023-02-15T00:51:23;99262.78;;;-0.42;100.00
54910;BME280;63189;51.240;9.964;2023-02-15T00:53:49;99256.78;;;-0.42;100.00
54910;BME280;63189;51.240;9.964;2023-02-15T00:56:14;99258.59;;;-0.40;100.00
54910;BME280;63189;51.240;9.964;2023-02-15T00:58:40;99255.81;;;-0.46;100.00
54910;BME280;63189;51.240;9.964;2023-02-15T01:01:08;99259.22;;;-0.47;100.00
54910;BME280;63189;51.240;9.964;2023-02-15T01:03:34;99250.38;;;-0.55;100.00
54910;BME280;63189;51.240;9.964;2023-02-15T01:05:59;99240.91;;;-0.57;100.00
54910;BME280;63189;51.240;9.964;2023-02-15T01:08:25;99251.13;;;-0.59;100.00
54910;BME280;63189;51.240;9.964;2023-02-15T01:10:51;99240.03;;;-0.58;100.00
54910;BME280;63189;51.240;9.964;2023-02-15T01:13:16;99245.06;;;-0.61;100.00
54910;BME280;63189;51.240;9.964;2023-02-15T01:15:43;99244.25;;;-0.60;100.00
54910;BME280;63189;51.240;9.964;2023-02-15T01:18:09;99236.94;;;-0.73;100.00
54910;BME280;63189;51.240;9.964;2023-02-15T01:20:37;99235.97;;;-0.77;100.00
54910;BME280;63189;51.240;9.964;2023-02-15T01:23:05;99226.44;;;-0.81;100.00
54910;BME280;63189;51.240;9.964;2023-02-15T01:25:32;99224.63;;;-0.83;100.00
54910;BME280;63189;51.240;9.964;2023-02-15T01:27:58;99228.75;;;-0.89;100.00
54910;BME280;63189;51.240;9.964;2023-02-15T01:30:26;99234.78;;;-0.87;100.00
54910;BME280;63189;51.240;9.964;2023-02-15T01:32:52;99229.50;;;-0.91;100.00
54910;BME280;63189;51.240;9.964;2023-02-15T01:35:17;99227.88;;;-0.89;100.00
54910;BME280;63189;51.240;9.964;2023-02-15T01:37:44;99232.25;;;-0.85;100.00
54910;BME280;63189;51.240;9.964;2023-02-15T01:43:40;99217.56;;;-0.91;100.00
54910;BME280;63189;51.240;9.964;2023-02-15T01:46:07;99227.53;;;-0.98;100.00
54910;BME280;63189;51.240;9.964;2023-02-15T01:48:33;99212.94;;;-1.01;100.00
54910;BME280;63189;51.240;9.964;2023-02-15T01:51:01;99214.03;;;-0.94;100.00
54910;BME280;63189;51.240;9.964;2023-02-15T01:53:33;99219.91;;;-0.97;100.00
54910;BME280;63189;51.240;9.964;2023-02-15T01:56:06;99218.06;;;-1.01;100.00
54910;BME280;63189;51.240;9.964;2023-02-15T01:58:34;99210.34;;;-1.02;100.00
54910;BME280;63189;51.240;9.964;2023-02-15T02:01:00;99211.22;;;-1.02;100.00
54910;BME280;63189;51.240;9.964;2023-02-15T02:06:33;99205.22;;;-1.02;100.00
54910;BME280;63189;51.240;9.964;2023-02-15T02:08:58;99211.94;;;-1.04;100.00
54910;BME280;63189;51.240;9.964;2023-02-15T02:11:25;99206.91;;;-1.03;100.00
54910;BME280;63189;51.240;9.964;2023-02-15T02:13:53;99206.97;;;-1.01;100.00
54910;BME280;63189;51.240;9.964;2023-02-15T02:38:08;99193.66;;;-1.15;100.00
54910;BME280;63189;51.240;9.964;2023-02-15T02:43:25;99202.06;;;-1.19;100.00
54910;BME280;63189;51.240;9.964;2023-02-15T02:45:57;99188.28;;;-1.23;100.00
54910;BME280;63189;51.240;9.964;2023-02-15T02:48:25;99181.63;;;-1.18;100.00
54910;BME280;63189;51.240;9.964;2023-02-15T02:50:53;99180.72;;;-1.20;100.00
54910;BME280;63189;51.240;9.964;2023-02-15T02:53:18;99175.44;;;-1.24;100.00
54910;BME280;63189;51.240;9.964;2023-02-15T02:55:53;99175.38;;;-1.26;100.00
54910;BME280;63189;51.240;9.964;2023-02-15T03:00:55;99173.81;;;-1.22;100.00
54910;BME280;63189;51.240;9.964;2023-02-15T03:03:24;99177.28;;;-1.20;100.00
54910;BME280;63189;51.240;9.964;2023-02-15T03:05:54;99176.47;;;-1.19;100.00
54910;BME280;63189;51.240;9.964;2023-02-15T03:08:24;99167.78;;;-1.24;100.00
54910;BME280;63189;51.240;9.964;2023-02-15T03:10:55;99169.56;;;-1.22;100.00
54910;BME280;63189;51.240;9.964;2023-02-15T03:13:23;99154.84;;;-1.27;100.00
54910;BME280;63189;51.240;9.964;2023-02-15T03:15:50;99159.97;;;-1.27;100.00
54910;BME280;63189;51.240;9.964;2023-02-15T03:18:39;99160.63;;;-1.33;100.00
54910;BME280;63189;51.240;9.964;2023-02-15T03:21:07;99151.31;;;-1.31;100.00
54910;BME280;63189;51.240;9.964;2023-02-15T03:23:35;99154.69;;;-1.32;100.00
54910;BME280;63189;51.240;9.964;2023-02-15T03:26:05;99140.03;;;-1.36;100.00
54910;BME280;63189;51.240;9.964;2023-02-15T03:28:45;99131.50;;;-1.36;100.00
54910;BME280;63189;51.240;9.964;2023-02-15T03:31:12;99148.63;;;-1.35;100.00
54910;BME280;63189;51.240;9.964;2023-02-15T03:33:44;99139.13;;;-1.38;100.00
54910;BME280;63189;51.240;9.964;2023-02-15T03:36:38;99130.38;;;-1.44;100.00
54910;BME280;63189;51.240;9.964;2023-02-15T03:42:19;99139.50;;;-1.51;100.00
54910;BME280;63189;51.240;9.964;2023-02-15T03:44:55;99130.03;;;-1.54;100.00
54910;BME280;63189;51.240;9.964;2023-02-15T03:47:30;99131.69;;;-1.56;100.00
54910;BME280;63189;51.240;9.964;2023-02-15T03:50:24;99130.63;;;-1.61;100.00
54910;BME280;63189;51.240;9.964;2023-02-15T03:53:14;99122.91;;;-1.62;100.00
54910;BME280;63189;51.240;9.964;2023-02-15T03:55:40;99137.38;;;-1.63;100.00
54910;BME280;63189;51.240;9.964;2023-02-15T03:58:05;99125.41;;;-1.64;100.00
54910;BME280;63189;51.240;9.964;2023-02-15T04:01:05;99133.13;;;-1.62;100.00
54910;BME280;63189;51.240;9.964;2023-02-15T04:04:09;99132.94;;;-1.67;100.00
54910;BME280;63189;51.240;9.964;2023-02-15T04:06:37;99131.28;;;-1.66;100.00
54910;BME280;63189;51.240;9.964;2023-02-15T04:09:03;99129.53;;;-1.67;100.00
54910;BME280;63189;51.240;9.964;2023-02-15T04:11:48;99127.09;;;-1.64;100.00
54910;BME280;63189;51.240;9.964;2023-02-15T04:14:14;99130.38;;;-1.67;100.00
54910;BME280;63189;51.240;9.964;2023-02-15T04:16:58;99125.28;;;-1.67;100.00
54910;BME280;63189;51.240;9.964;2023-02-15T04:19:23;99125.34;;;-1.65;100.00
54910;BME280;63189;51.240;9.964;2023-02-15T04:22:07;99129.53;;;-1.67;100.00
54910;BME280;63189;51.240;9.964;2023-02-15T04:24:52;99126.09;;;-1.68;100.00
54910;BME280;63189;51.240;9.964;2023-02-15T04:27:37;99139.00;;;-1.65;100.00
54910;BME280;63189;51.240;9.964;2023-02-15T04:30:05;99126.22;;;-1.65;100.00
54910;BME280;63189;51.240;9.964;2023-02-15T04:32:30;99118.50;;;-1.66;100.00
54910;BME280;63189;51.240;9.964;2023-02-15T04:34:55;99122.03;;;-1.63;100.00
54910;BME280;63189;51.240;9.964;2023-02-15T04:37:21;99123.44;;;-1.71;100.00
54910;BME280;63189;51.240;9.964;2023-02-15T04:39:46;99115.59;;;-1.76;100.00
54910;BME280;63189;51.240;9.964;2023-02-15T04:42:11;99110.31;;;-1.80;100.00
54910;BME280;63189;51.240;9.964;2023-02-15T04:44:37;99119.72;;;-1.79;100.00
54910;BME280;63189;51.240;9.964;2023-02-15T04:47:02;99106.94;;;-1.79;100.00
54910;BME280;63189;51.240;9.964;2023-02-15T04:49:27;99105.19;;;-1.80;100.00
54910;BME280;63189;51.240;9.964;2023-02-15T04:51:53;99101.81;;;-1.79;100.00
54910;BME280;63189;51.240;9.964;2023-02-15T04:54:18;99101.00;;;-1.78;100.00
54910;BME280;63189;51.240;9.964;2023-02-15T04:56:43;99103.50;;;-1.80;100.00
54910;BME280;63189;51.240;9.964;2023-02-15T04:59:10;99094.06;;;-1.82;100.00
54910;BME280;63189;51.240;9.964;2023-02-15T05:01:36;99100.81;;;-1.84;100.00
54910;BME280;63189;51.240;9.964;2023-02-15T05:04:01;99099.88;;;-1.86;100.00
54910;BME280;63189;51.240;9.964;2023-02-15T05:06:27;99089.47;;;-1.91;100.00
54910;BME280;63189;51.240;9.964;2023-02-15T05:08:53;99097.09;;;-1.92;100.00
54910;BME280;63189;51.240;9.964;2023-02-15T05:11:18;99091.09;;;-1.93;100.00
54910;BME280;63189;51.240;9.964;2023-02-15T05:13:43;99096.22;;;-1.93;100.00
54910;BME280;63189;51.240;9.964;2023-02-15T05:16:09;99090.47;;;-1.87;100.00
54910;BME280;63189;51.240;9.964;2023-02-15T05:18:34;99096.38;;;-1.88;100.00
54910;BME280;63189;51.240;9.964;2023-02-15T05:20:59;99088.69;;;-1.88;100.00
54910;BME280;63189;51.240;9.964;2023-02-15T05:23:25;99090.28;;;-1.92;100.00
54910;BME280;63189;51.240;9.964;2023-02-15T05:25:51;99079.16;;;-1.94;100.00
54910;BME280;63189;51.240;9.964;2023-02-15T05:28:36;99080.72;;;-1.97;100.00
54910;BME280;63189;51.240;9.964;2023-02-15T05:31:03;99084.16;;;-1.97;100.00
54910;BME280;63189;51.240;9.964;2023-02-15T05:33:28;99078.09;;;-1.99;100.00
54910;BME280;63189;51.240;9.964;2023-02-15T05:35:54;99076.59;;;-1.94;100.00
54910;BME280;63189;51.240;9.964;2023-02-15T05:38:19;99067.22;;;-1.93;100.00
54910;BME280;63189;51.240;9.964;2023-02-15T05:40:44;99074.91;;;-1.93;100.00
54910;BME280;63189;51.240;9.964;2023-02-15T05:43:10;99074.19;;;-1.89;100.00
54910;BME280;63189;51.240;9.964;2023-02-15T05:45:35;99071.56;;;-1.91;100.00
54910;BME280;63189;51.240;9.964;2023-02-15T05:48:00;99060.44;;;-1.93;100.00
54910;BME280;63189;51.240;9.964;2023-02-15T05:50:26;99065.50;;;-1.94;100.00
54910;BME280;63189;51.240;9.964;2023-02-15T05:52:51;99067.19;;;-1.95;100.00
54910;BME280;63189;51.240;9.964;2023-02-15T05:55:17;99067.94;;;-1.97;100.00
54910;BME280;63189;51.240;9.964;2023-02-15T05:57:43;99071.38;;;-1.97;100.00
54910;BME280;63189;51.240;9.964;2023-02-15T06:00:09;99073.16;;;-1.94;100.00
54910;BME280;63189;51.240;9.964;2023-02-15T06:02:35;99080.94;;;-1.91;100.00
54910;BME280;63189;51.240;9.964;2023-02-15T06:05:02;99085.13;;;-1.93;100.00
54910;BME280;63189;51.240;9.964;2023-02-15T06:07:27;99086.75;;;-1.95;100.00
54910;BME280;63189;51.240;9.964;2023-02-15T06:09:53;99091.09;;;-1.93;100.00
54910;BME280;63189;51.240;9.964;2023-02-15T06:12:18;99092.44;;;-2.03;100.00
54910;BME280;63189;51.240;9.964;2023-02-15T06:14:43;99090.81;;;-2.00;100.00
54910;BME280;63189;51.240;9.964;2023-02-15T06:17:08;99094.19;;;-2.01;100.00
54910;BME280;63189;51.240;9.964;2023-02-15T06:19:34;99085.69;;;-2.00;100.00
54910;BME280;63189;51.240;9.964;2023-02-15T06:21:59;99071.91;;;-2.06;100.00
54910;BME280;63189;51.240;9.964;2023-02-15T06:24:24;99079.56;;;-2.06;100.00
54910;BME280;63189;51.240;9.964;2023-02-15T06:26:50;99081.31;;;-2.05;100.00
54910;BME280;63189;51.240;9.964;2023-02-15T06:29:15;99084.72;;;-2.04;100.00
54910;BME280;63189;51.240;9.964;2023-02-15T06:31:41;99085.59;;;-2.04;100.00
54910;BME280;63189;51.240;9.964;2023-02-15T06:34:06;99085.59;;;-2.04;100.00
54910;BME280;63189;51.240;9.964;2023-02-15T06:36:31;99094.03;;;-2.06;100.00
54910;BME280;63189;51.240;9.964;2023-02-15T06:39:00;99084.50;;;-2.10;100.00
54910;BME280;63189;51.240;9.964;2023-02-15T06:41:25;99085.34;;;-2.10;100.00
54910;BME280;63189;51.240;9.964;2023-02-15T06:43:50;99092.91;;;-2.13;100.00
54910;BME280;63189;51.240;9.964;2023-02-15T06:46:16;99090.25;;;-2.16;100.00
54910;BME280;63189;51.240;9.964;2023-02-15T06:48:41;99087.44;;;-2.22;100.00
54910;BME280;63189;51.240;9.964;2023-02-15T06:51:07;99100.00;;;-2.28;100.00
54910;BME280;63189;51.240;9.964;2023-02-15T06:53:32;99100.13;;;-2.25;100.00
54910;BME280;63189;51.240;9.964;2023-02-15T06:56:06;99098.38;;;-2.26;100.00
54910;BME280;63189;51.240;9.964;2023-02-15T06:58:34;99105.13;;;-2.28;100.00
54910;BME280;63189;51.240;9.964;2023-02-15T07:01:00;99097.22;;;-2.34;100.00
54910;BME280;63189;51.240;9.964;2023-02-15T07:03:25;99099.81;;;-2.33;100.00
54910;BME280;63189;51.240;9.964;2023-02-15T07:05:54;99102.41;;;-2.31;100.00
54910;BME280;63189;51.240;9.964;2023-02-15T07:08:22;99092.97;;;-2.34;100.00
54910;BME280;63189;51.240;9.964;2023-02-15T07:10:51;99102.41;;;-2.31;100.00
54910;BME280;63189;51.240;9.964;2023-02-15T07:13:17;99093.78;;;-2.35;100.00
54910;BME280;63189;51.240;9.964;2023-02-15T07:15:43;99098.13;;;-2.32;100.00
54910;BME280;63189;51.240;9.964;2023-02-15T07:18:09;99092.22;;;-2.31;100.00
54910;BME280;63189;51.240;9.964;2023-02-15T07:20:36;99094.09;;;-2.27;100.00
54910;BME280;63189;51.240;9.964;2023-02-15T07:23:03;99093.22;;;-2.27;100.00
54910;BME280;63189;51.240;9.964;2023-02-15T07:25:28;99096.38;;;-2.33;100.00
54910;BME280;63189;51.240;9.964;2023-02-15T07:28:01;99102.31;;;-2.34;100.00
54910;BME280;63189;51.240;9.964;2023-02-15T07:30:26;99101.50;;;-2.33;100.00
54910;BME280;63189;51.240;9.964;2023-02-15T07:32:56;99102.25;;;-2.36;100.00
54910;BME280;63189;51.240;9.964;2023-02-15T07:35:47;99098.06;;;-2.34;100.00
54910;BME280;63189;51.240;9.964;2023-02-15T07:38:21;99081.06;;;-2.33;100.00
54910;BME280;63189;51.240;9.964;2023-02-15T07:40:47;99086.28;;;-2.30;100.00
54910;BME280;63189;51.240;9.964;2023-02-15T07:43:13;99080.38;;;-2.29;100.00
54910;BME280;63189;51.240;9.964;2023-02-15T07:45:38;99083.72;;;-2.30;100.00
54910;BME280;63189;51.240;9.964;2023-02-15T07:48:05;99084.59;;;-2.29;100.00
54910;BME280;63189;51.240;9.964;2023-02-15T07:50:30;99080.25;;;-2.32;100.00
54910;BME280;63189;51.240;9.964;2023-02-15T07:52:55;99077.03;;;-2.28;100.00
54910;BME280;63189;51.240;9.964;2023-02-15T07:55:21;99076.06;;;-2.30;100.00
54910;BME280;63189;51.240;9.964;2023-02-15T07:57:48;99073.66;;;-2.27;100.00
54910;BME280;63189;51.240;9.964;2023-02-15T08:00:15;99072.63;;;-2.30;100.00
54910;BME280;63189;51.240;9.964;2023-02-15T08:02:42;99072.59;;;-2.32;100.00
54910;BME280;63189;51.240;9.964;2023-02-15T08:05:12;99069.41;;;-2.26;100.00
54910;BME280;63189;51.240;9.964;2023-02-15T08:07:37;99066.19;;;-2.21;100.00
54910;BME280;63189;51.240;9.964;2023-02-15T08:10:03;99067.03;;;-2.22;100.00
54910;BME280;63189;51.240;9.964;2023-02-15T08:12:28;99064.59;;;-2.19;100.00
54910;BME280;63189;51.240;9.964;2023-02-15T08:14:53;99059.34;;;-2.22;100.00
54910;BME280;63189;51.240;9.964;2023-02-15T08:17:19;99075.59;;;-2.20;100.00
54910;BME280;63189;51.240;9.964;2023-02-15T08:19:44;99074.94;;;-2.16;100.00
54910;BME280;63189;51.240;9.964;2023-02-15T08:22:13;99075.94;;;-2.11;100.00
54910;BME280;63189;51.240;9.964;2023-02-15T08:24:38;99070.72;;;-2.14;100.00
54910;BME280;63189;51.240;9.964;2023-02-15T08:27:14;99064.75;;;-2.14;100.00
54910;BME280;63189;51.240;9.964;2023-02-15T08:29:41;99065.00;;;-2.08;100.00
54910;BME280;63189;51.240;9.964;2023-02-15T08:32:09;99062.25;;;-2.13;100.00
54910;BME280;63189;51.240;9.964;2023-02-15T08:34:38;99060.53;;;-2.14;100.00
54910;BME280;63189;51.240;9.964;2023-02-15T08:37:04;99059.75;;;-2.11;100.00
54910;BME280;63189;51.240;9.964;2023-02-15T08:39:31;99058.25;;;-2.06;100.00
54910;BME280;63189;51.240;9.964;2023-02-15T08:41:56;99063.38;;;-2.06;100.00
54910;BME280;63189;51.240;9.964;2023-02-15T08:44:21;99060.91;;;-2.03;100.00
54910;BME280;63189;51.240;9.964;2023-02-15T08:46:48;99069.69;;;-1.96;100.00
54910;BME280;63189;51.240;9.964;2023-02-15T08:49:21;99072.19;;;-1.98;100.00
54910;BME280;63189;51.240;9.964;2023-02-15T08:51:47;99068.81;;;-1.97;100.00
54910;BME280;63189;51.240;9.964;2023-02-15T08:54:15;99071.53;;;-1.92;100.00
54910;BME280;63189;51.240;9.964;2023-02-15T08:56:42;99066.47;;;-1.91;100.00
54910;BME280;63189;51.240;9.964;2023-02-15T08:59:13;99059.41;;;-1.98;100.00
54910;BME280;63189;51.240;9.964;2023-02-15T09:01:39;99057.06;;;-1.92;100.00
54910;BME280;63189;51.240;9.964;2023-02-15T09:04:07;99057.34;;;-1.84;100.00
54910;BME280;63189;51.240;9.964;2023-02-15T09:06:37;99056.53;;;-1.83;100.00
54910;BME280;63189;51.240;9.964;2023-02-15T09:09:03;99062.66;;;-1.78;100.00
54910;BME280;63189;51.240;9.964;2023-02-15T09:11:32;99060.25;;;-1.75;100.00
54910;BME280;63189;51.240;9.964;2023-02-15T09:14:03;99062.06;;;-1.71;100.00
54910;BME280;63189;51.240;9.964;2023-02-15T09:16:31;99058.59;;;-1.73;100.00
54910;BME280;63189;51.240;9.964;2023-02-15T09:19:00;99065.69;;;-1.66;100.00
54910;BME280;63189;51.240;9.964;2023-02-15T09:21:29;99063.19;;;-1.64;100.00
54910;BME280;63189;51.240;9.964;2023-02-15T09:23:59;99057.44;;;-1.57;100.00
54910;BME280;63189;51.240;9.964;2023-02-15T09:26:26;99047.22;;;-1.57;100.00
54910;BME280;63189;51.240;9.964;2023-02-15T09:28:53;99054.84;;;-1.59;100.00
54910;BME280;63189;51.240;9.964;2023-02-15T09:31:22;99054.97;;;-1.56;100.00
54910;BME280;63189;51.240;9.964;2023-02-15T09:33:48;99050.03;;;-1.50;100.00
54910;BME280;63189;51.240;9.964;2023-02-15T09:36:20;99050.13;;;-1.47;100.00
54910;BME280;63189;51.240;9.964;2023-02-15T09:38:47;99046.03;;;-1.43;100.00
54910;BME280;63189;51.240;9.964;2023-02-15T09:56:02;99028.38;;;-1.35;100.00
54910;BME280;63189;51.240;9.964;2023-02-15T09:58:42;99032.09;;;-1.26;100.00
54910;BME280;63189;51.240;9.964;2023-02-15T10:03:53;99031.56;;;-1.16;100.00
54910;BME280;63189;51.240;9.964;2023-02-15T10:11:38;99037.25;;;-0.99;100.00
54910;BME280;63189;51.240;9.964;2023-02-15T10:27:45;99020.91;;;-0.48;100.00
54910;BME280;63189;51.240;9.964;2023-02-15T10:30:17;99011.16;;;-0.32;100.00
54910;BME280;63189;51.240;9.964;2023-02-15T10:43:59;99000.41;;;0.75;100.00
54910;BME280;63189;51.240;9.964;2023-02-15T10:54:48;98989.63;;;0.90;100.00
54910;BME280;63189;51.240;9.964;2023-02-15T10:57:39;98988.06;;;0.95;100.00
54910;BME280;63189;51.240;9.964;2023-02-15T11:03:05;98978.72;;;0.98;100.00
54910;BME280;63189;51.240;9.964;2023-02-15T11:05:51;98967.44;;;0.92;100.00
54910;BME280;63189;51.240;9.964;2023-02-15T11:08:21;98969.91;;;0.87;100.00
54910;BME280;63189;51.240;9.964;2023-02-15T11:10:54;98968.22;;;0.89;100.00
54910;BME280;63189;51.240;9.964;2023-02-15T11:13:22;98976.34;;;1.06;100.00
54910;BME280;63189;51.240;9.964;2023-02-15T11:15:55;98973.19;;;1.18;100.00
54910;BME280;63189;51.240;9.964;2023-02-15T11:18:46;98962.28;;;1.26;100.00
54910;BME280;63189;51.240;9.964;2023-02-15T11:23:45;98974.97;;;1.59;100.00
54910;BME280;63189;51.240;9.964;2023-02-15T11:26:15;98968.22;;;1.64;100.00
54910;BME280;63189;51.240;9.964;2023-02-15T11:28:51;98966.66;;;1.71;100.00
54910;BME280;63189;51.240;9.964;2023-02-15T11:31:23;98973.53;;;1.72;100.00
54910;BME280;63189;51.240;9.964;2023-02-15T11:33:58;98973.44;;;1.67;100.00
54910;BME280;63189;51.240;9.964;2023-02-15T11:36:34;98974.88;;;1.55;100.00
54910;BME280;63189;51.240;9.964;2023-02-15T11:39:09;98962.00;;;1.53;100.00
54910;BME280;63189;51.240;9.964;2023-02-15T11:41:39;98969.63;;;1.50;100.00
54910;BME280;63189;51.240;9.964;2023-02-15T11:46:40;98964.31;;;1.82;100.00
54910;BME280;63189;51.240;9.964;2023-02-15T11:49:22;98959.56;;;2.01;100.00
54910;BME280;63189;51.240;9.964;2023-02-15T11:51:48;98956.34;;;2.12;100.00
54910;BME280;63189;51.240;9.964;2023-02-15T11:54:17;98948.84;;;2.24;100.00
54910;BME280;63189;51.240;9.964;2023-02-15T11:56:43;98938.91;;;2.44;100.00
54910;BME280;63189;51.240;9.964;2023-02-15T11:59:12;98948.50;;;2.52;100.00
54910;BME280;63189;51.240;9.964;2023-02-15T12:01:48;98945.03;;;2.50;100.00
54910;BME280;63189;51.240;9.964;2023-02-15T12:06:49;98950.59;;;2.75;100.00
54910;BME280;63189;51.240;9.964;2023-02-15T12:12:32;98947.41;;;2.91;100.00
54910;BME280;63189;51.240;9.964;2023-02-15T12:15:03;98930.19;;;2.87;99.67
54910;BME280;63189;51.240;9.964;2023-02-15T12:17:32;98944.19;;;3.04;100.00
54910;BME280;63189;51.240;9.964;2023-02-15T12:20:06;98936.34;;;2.97;99.07
54910;BME280;63189;51.240;9.964;2023-02-15T12:22:34;98927.75;;;2.98;99.66
54910;BME280;63189;51.240;9.964;2023-02-15T12:25:04;98931.19;;;2.97;99.41
54910;BME280;63189;51.240;9.964;2023-02-15T12:27:42;98936.31;;;2.95;98.01
54910;BME280;63189;51.240;9.964;2023-02-15T12:30:25;98936.31;;;2.95;98.97
54910;BME280;63189;51.240;9.964;2023-02-15T12:33:13;98930.59;;;3.14;100.00
54910;BME280;63189;51.240;9.964;2023-02-15T12:35:40;98931.53;;;3.19;97.76
54910;BME280;63189;51.240;9.964;2023-02-15T12:40:35;98923.00;;;3.24;98.03
54910;BME280;63189;51.240;9.964;2023-02-15T12:43:04;98914.34;;;3.18;98.91
54910;BME280;63189;51.240;9.964;2023-02-15T12:45:35;98923.09;;;3.31;99.22
54910;BME280;63189;51.240;9.964;2023-02-15T12:48:16;98916.22;;;3.30;97.73
54910;BME280;63189;51.240;9.964;2023-02-15T12:50:45;98924.06;;;3.38;97.94
54910;BME280;63189;51.240;9.964;2023-02-15T12:53:18;98925.81;;;3.42;97.56
54910;BME280;63189;51.240;9.964;2023-02-15T12:55:56;98913.78;;;3.41;98.32
54910;BME280;63189;51.240;9.964;2023-02-15T12:58:24;98929.91;;;3.25;96.49
54910;BME280;63189;51.240;9.964;2023-02-15T13:03:39;98920.34;;;3.19;97.55
54910;BME280;63189;51.240;9.964;2023-02-15T13:06:17;98907.34;;;3.11;96.92
54910;BME280;63189;51.240;9.964;2023-02-15T13:08:51;98909.69;;;2.93;96.16
54910;BME280;63189;51.240;9.964;2023-02-15T13:11:26;98901.91;;;2.92;97.92
54910;BME280;63189;51.240;9.964;2023-02-15T13:14:00;98902.84;;;2.95;98.09
54910;BME280;63189;51.240;9.964;2023-02-15T13:16:35;98890.88;;;3.00;99.60
54910;BME280;63189;51.240;9.964;2023-02-15T13:19:14;98890.88;;;3.00;98.50
54910;BME280;63189;51.240;9.964;2023-02-15T13:21:47;98893.56;;;3.06;99.50
54910;BME280;63189;51.240;9.964;2023-02-15T13:24:23;98897.84;;;3.07;99.07
54910;BME280;63189;51.240;9.964;2023-02-15T13:26:50;98895.31;;;3.09;99.50
54910;BME280;63189;51.240;9.964;2023-02-15T13:29:24;98889.31;;;3.11;99.27
54910;BME280;63189;51.240;9.964;2023-02-15T13:31:53;98877.19;;;3.03;99.68
54910;BME280;63189;51.240;9.964;2023-02-15T13:34:31;98882.38;;;3.04;98.71
54910;BME280;63189;51.240;9.964;2023-02-15T13:47:21;98880.31;;;2.82;100.00
54910;BME280;63189;51.240;9.964;2023-02-15T13:52:27;98870.13;;;2.91;100.00
54910;BME280;63189;51.240;9.964;2023-02-15T14:00:27;98864.88;;;2.82;100.00
54910;BME280;63189;51.240;9.964;2023-02-15T14:06:10;98859.63;;;2.76;100.00
54910;BME280;63189;51.240;9.964;2023-02-15T14:16:54;98859.75;;;2.85;100.00
54910;BME280;63189;51.240;9.964;2023-02-15T14:28:09;98840.06;;;2.88;100.00
54910;BME280;63189;51.240;9.964;2023-02-15T14:30:38;98840.06;;;2.90;100.00
54910;BME280;63189;51.240;9.964;2023-02-15T14:35:39;98842.56;;;2.84;100.00
54910;BME280;63189;51.240;9.964;2023-02-15T14:46:52;98835.06;;;3.01;99.75
54910;BME280;63189;51.240;9.964;2023-02-15T14:49:24;98832.53;;;3.02;100.00
54910;BME280;63189;51.240;9.964;2023-02-15T14:56:46;98824.94;;;3.13;99.78
54910;BME280;63189;51.240;9.964;2023-02-15T15:01:39;98814.72;;;3.19;98.93
54910;BME280;63189;51.240;9.964;2023-02-15T15:04:09;98816.50;;;3.23;100.00
54910;BME280;63189;51.240;9.964;2023-02-15T15:06:39;98819.13;;;3.28;99.96
54910;BME280;63189;51.240;9.964;2023-02-15T15:09:21;98813.88;;;3.22;100.00
54910;BME280;63189;51.240;9.964;2023-02-15T15:11:50;98810.44;;;3.21;100.00
54910;BME280;63189;51.240;9.964;2023-02-15T15:14:36;98817.38;;;3.25;100.00
54910;BME280;63189;51.240;9.964;2023-02-15T15:17:12;98816.53;;;3.26;100.00
54910;BME280;63189;51.240;9.964;2023-02-15T15:22:19;98816.56;;;3.32;100.00
54910;BME280;63189;51.240;9.964;2023-02-15T15:24:56;98820.84;;;3.30;100.00
54910;BME280;63189;51.240;9.964;2023-02-15T15:38:22;98808.94;;;3.40;100.00
54910;BME280;63189;51.240;9.964;2023-02-15T15:46:45;98803.78;;;3.38;100.00
54910;BME280;63189;51.240;9.964;2023-02-15T15:49:18;98808.06;;;3.36;100.00
54910;BME280;63189;51.240;9.964;2023-02-15T15:51:45;98805.47;;;3.35;100.00
54910;BME280;63189;51.240;9.964;2023-02-15T15:54:23;98806.34;;;3.37;100.00
54910;BME280;63189;51.240;9.964;2023-02-15T15:56:52;98802.91;;;3.36;100.00
54910;BME280;63189;51.240;9.964;2023-02-15T15:59:25;98797.72;;;3.35;100.00
54910;BME280;63189;51.240;9.964;2023-02-15T16:01:51;98797.72;;;3.35;100.00
54910;BME280;63189;51.240;9.964;2023-02-15T16:07:35;98802.75;;;3.24;100.00
54910;BME280;63189;51.240;9.964;2023-02-15T16:10:05;98799.31;;;3.24;100.00
54910;BME280;63189;51.240;9.964;2023-02-15T16:12:38;98800.13;;;3.21;100.00
54910;BME280;63189;51.240;9.964;2023-02-15T16:15:15;98801.84;;;3.21;100.00
54910;BME280;63189;51.240;9.964;2023-02-15T16:17:43;98799.22;;;3.17;100.00